Millville, West Virginia
Current Conditions -  °F | °C
As of 8:53 AM on Wednesday 26 Nov 2014 (Local Time) from KMRB Reporting Station
Moderate Rain Moderate Rain  
Wind Chill: 30°   Ceiling: 500
Heat Index: 36°   Visibility: 2mi
Dew Point: 33°   Wind: 8mph
Humidity: 89%   Direction: 20°NNE
Pressure: 30.05"   Gusts: NA
Location:  39.29°N, 77.79°W
Report Text: KMRB 261353Z 02007KT 2SM RA BR OVC005 02/01 A3005 RMK AO2 SLP180 P0010 T00220006
Loading
Personal Weather Stations






























Interactive Weather Map New forecast layout! Learn more

10-Day Weather Forecast

Advertisements
Track Severe Weather on mobile